Time;durP1;ratioP1;P1;durP2;ratioP2;P2;SDS_P1;SDS_P2;PMS_P1;PMS_P2;Temp;Humidity;BMP_temperature;BMP_pressure;BME280_temperature;BME280_humidity;BME280_pressure;Samples;Min_cycle;Max_cycle;Signal;HPM_P1;HPM_P2
2022/08/15 00:00:38;;;;;;;18.35;10.25;;;;;;;17.58;100.00;96830.59;5027379;28;20544;-76
2022/08/15 00:03:04;;;;;;;22.25;10.73;;;;;;;17.63;100.00;96841.78;5028475;28;20032;-76
2022/08/15 00:05:33;;;;;;;19.85;12.18;;;;;;;17.66;100.00;96846.03;5037930;28;20105;-76
2022/08/15 00:07:59;;;;;;;21.08;10.52;;;;;;;17.64;100.00;96842.66;5036557;28;20104;-76
2022/08/15 00:10:25;;;;;;;21.27;12.10;;;;;;;17.68;100.00;96844.06;5033002;28;20491;-76
2022/08/15 00:12:50;;;;;;;15.65;10.77;;;;;;;17.76;100.00;96841.41;5039349;28;20026;-77
2022/08/15 00:15:18;;;;;;;24.50;11.88;;;;;;;17.79;100.00;96850.06;5011757;28;20158;-77
2022/08/15 00:17:46;;;;;;;23.25;12.40;;;;;;;17.84;100.00;96849.59;5024831;28;20377;-78
2022/08/15 00:20:12;;;;;;;17.42;9.63;;;;;;;17.87;100.00;96843.88;5044568;28;20025;-78
2022/08/15 00:22:50;;;;;;;18.65;10.15;;;;;;;17.87;100.00;96850.09;5034781;28;20381;-77
2022/08/15 00:25:16;;;;;;;15.40;10.45;;;;;;;17.85;100.00;96841.31;5030604;28;20500;-78
2022/08/15 00:27:42;;;;;;;20.00;11.25;;;;;;;17.82;100.00;96830.81;5028047;28;20033;-77
2022/08/15 00:30:09;;;;;;;20.75;11.82;;;;;;;17.86;100.00;96842.16;5027900;28;20515;-78
2022/08/15 00:32:36;;;;;;;18.85;11.38;;;;;;;17.86;100.00;96839.47;5014130;28;20116;-77
2022/08/15 00:35:35;;;;;;;24.25;11.90;;;;;;;17.86;100.00;96834.91;5039009;28;20036;-77
2022/08/15 00:37:55;;;;;;;20.45;10.50;;;;;;;17.85;100.00;96835.03;5034483;28;20029;-77
2022/08/15 00:40:22;;;;;;;18.63;10.98;;;;;;;17.75;100.00;96813.50;5041402;28;20070;-77
2022/08/15 00:42:48;;;;;;;17.10;9.85;;;;;;;17.83;100.00;96835.22;5027703;28;20488;-77
2022/08/15 00:45:14;;;;;;;14.50;9.20;;;;;;;17.77;100.00;96832.28;5011342;28;20033;-77
2022/08/15 00:47:42;;;;;;;13.07;9.02;;;;;;;17.73;100.00;96825.47;5039522;28;20029;-78
2022/08/15 00:50:11;;;;;;;17.98;9.48;;;;;;;17.71;100.00;96828.34;5023787;28;20537;-77
2022/08/15 00:52:36;;;;;;;17.38;10.25;;;;;;;17.61;100.00;96838.41;5030260;28;20037;-78
2022/08/15 00:55:13;;;;;;;14.55;10.02;;;;;;;17.61;100.00;96837.56;5029675;28;20595;-77
2022/08/15 00:57:43;;;;;;;14.20;9.73;;;;;;;17.56;100.00;96838.03;5019577;28;20069;-77
2022/08/15 01:00:14;;;;;;;14.40;9.90;;;;;;;17.63;100.00;96846.34;5035832;28;20391;-77
2022/08/15 01:02:40;;;;;;;20.55;10.73;;;;;;;17.59;100.00;96850.38;5047424;28;20077;-78
2022/08/15 01:05:11;;;;;;;18.02;10.40;;;;;;;17.55;100.00;96844.44;5022772;28;20065;-77
2022/08/15 01:07:37;;;;;;;18.10;10.57;;;;;;;17.58;100.00;96843.28;5037921;28;20032;-78
2022/08/15 01:10:05;;;;;;;19.63;9.65;;;;;;;17.57;100.00;96837.00;5030757;28;20025;-77
2022/08/15 01:12:32;;;;;;;14.38;10.07;;;;;;;17.56;100.00;96840.75;5019353;28;20068;-76
2022/08/15 01:15:01;;;;;;;15.05;9.75;;;;;;;17.53;100.00;96838.31;5027535;28;20033;-77
2022/08/15 01:17:28;;;;;;;17.63;9.93;;;;;;;17.46;100.00;96839.94;5022270;28;20036;-78
2022/08/15 01:20:00;;;;;;;17.60;10.93;;;;;;;17.49;100.00;96839.63;5038753;28;20108;-77
2022/08/15 01:23:11;;;;;;;22.33;11.65;;;;;;;17.48;100.00;96847.88;5045758;28;20089;-77
2022/08/15 01:25:47;;;;;;;23.77;13.10;;;;;;;17.46;100.00;96830.97;5016904;28;20029;-77
2022/08/15 01:28:26;;;;;;;20.58;12.52;;;;;;;17.47;100.00;96840.78;5046982;28;20040;-77
2022/08/15 01:30:56;;;;;;;21.52;13.00;;;;;;;17.47;100.00;96838.09;5043478;28;20021;-77
2022/08/15 01:33:24;;;;;;;27.85;14.20;;;;;;;17.43;100.00;96832.13;5027054;28;20416;-77
2022/08/15 01:35:52;;;;;;;27.85;12.82;;;;;;;17.50;100.00;96835.91;5027053;28;20028;-77
2022/08/15 01:38:35;;;;;;;19.48;12.57;;;;;;;17.48;100.00;96842.47;5010330;28;20033;-77
2022/08/15 01:41:28;;;;;;;20.00;13.32;;;;;;;17.48;100.00;96832.50;5026921;28;20037;-77
2022/08/15 01:44:06;;;;;;;17.80;9.65;;;;;;;17.54;100.00;96839.13;5035126;28;20065;-76
2022/08/15 01:46:38;;;;;;;12.57;7.90;;;;;;;17.53;100.00;96829.34;5045025;28;20488;-77
2022/08/15 01:49:10;;;;;;;16.85;7.72;;;;;;;17.50;100.00;96821.53;5037281;28;20063;-77
2022/08/15 01:51:36;;;;;;;11.43;6.45;;;;;;;17.48;100.00;96816.28;5045063;28;20372;-78
2022/08/15 01:54:06;;;;;;;10.05;7.07;;;;;;;17.46;100.00;96807.47;5030101;28;20029;-77
2022/08/15 01:56:41;;;;;;;13.70;6.30;;;;;;;17.47;100.00;96803.78;5036726;28;20029;-77
2022/08/15 01:59:11;;;;;;;10.00;7.07;;;;;;;17.56;100.00;96812.84;5046685;28;20029;-77
2022/08/15 02:01:45;;;;;;;9.45;7.03;;;;;;;17.62;100.00;96807.66;5105749;27;20045;-77
2022/08/15 02:04:13;;;;;;;15.65;6.68;;;;;;;17.66;100.00;96800.91;5033316;28;20056;-77
2022/08/15 02:06:39;;;;;;;11.90;9.40;;;;;;;17.58;100.00;96790.03;5014554;28;20398;-77
2022/08/15 02:09:06;;;;;;;17.33;10.50;;;;;;;17.73;100.00;96804.69;5046451;28;20021;-76
2022/08/15 02:11:32;;;;;;;18.02;11.32;;;;;;;17.72;100.00;96802.97;5038270;28;20029;-77
2022/08/15 02:13:58;;;;;;;23.85;11.65;;;;;;;17.70;100.00;96787.94;5042713;28;20026;-77
2022/08/15 02:16:35;;;;;;;29.95;12.63;;;;;;;17.75;100.00;96802.66;5026405;28;20029;-77
2022/08/15 02:19:03;;;;;;;19.23;11.93;;;;;;;17.79;100.00;96804.06;5023449;28;20027;-77
2022/08/15 02:21:29;;;;;;;22.80;12.50;;;;;;;17.71;100.00;96795.03;5029683;28;20032;-77
2022/08/15 02:23:54;;;;;;;27.63;13.93;;;;;;;17.73;100.00;96799.28;5026885;28;20033;-77
2022/08/15 02:26:20;;;;;;;23.30;13.63;;;;;;;17.75;100.00;96802.66;5009948;28;20041;-77
2022/08/15 02:28:46;;;;;;;26.95;12.77;;;;;;;17.80;100.00;96800.38;5026007;28;20029;-78
2022/08/15 02:31:18;;;;;;;24.83;13.70;;;;;;;17.77;100.00;96799.81;5032475;28;20081;-76
2022/08/15 02:33:48;;;;;;;;;;;;;;;17.80;100.00;96797.66;5047504;28;20115;-77
2022/08/15 02:36:16;;;;;;;21.00;12.63;;;;;;;17.78;100.00;96796.13;5036440;28;19913;-76
2022/08/15 02:38:48;;;;;;;29.55;13.45;;;;;;;17.70;100.00;96796.91;5047837;28;20028;-77
2022/08/15 02:41:18;;;;;;;24.90;15.13;;;;;;;17.66;100.00;96791.94;5049907;28;20036;-77
2022/08/15 02:43:45;;;;;;;24.52;14.63;;;;;;;17.71;100.00;96801.31;5033559;28;20407;-77
2022/08/15 02:46:12;;;;;;;24.42;14.77;;;;;;;17.64;100.00;96818.31;5013329;28;20026;-77
2022/08/15 02:48:39;;;;;;;28.30;14.48;;;;;;;17.64;100.00;96804.78;5029474;28;20495;-77
2022/08/15 02:51:13;;;;;;;26.65;12.90;;;;;;;17.68;100.00;96800.78;5029378;28;20029;-77
2022/08/15 02:53:43;;;;;;;21.58;12.45;;;;;;;17.74;100.00;96819.94;5029566;28;20072;-77
2022/08/15 02:56:09;;;;;;;21.27;11.75;;;;;;;17.72;100.00;96818.34;5033589;28;20112;-77
2022/08/15 02:58:35;;;;;;;25.25;11.15;;;;;;;17.64;100.00;96818.31;5033787;28;20116;-77
2022/08/15 03:01:05;;;;;;;20.83;10.52;;;;;;;17.64;100.00;96804.78;5048129;28;20047;-78
2022/08/15 03:03:31;;;;;;;33.45;12.38;;;;;;;17.62;100.00;96858.19;5034658;28;20026;-78
2022/08/15 03:05:57;;;;;;;61.50;14.77;;;;;;;17.50;100.00;96857.56;5028856;28;20046;-78
2022/08/15 03:08:24;;;;;;;42.72;16.63;;;;;;;17.51;100.00;96829.50;5029266;28;20037;-77
2022/08/15 03:10:50;;;;;;;100.25;17.02;;;;;;;17.46;100.00;96893.16;5047415;28;20029;-78
2022/08/15 03:13:16;;;;;;;159.18;16.63;;;;;;;17.44;100.00;96825.72;5018836;28;20025;-76
2022/08/15 03:15:48;;;;;;;69.38;16.23;;;;;;;17.45;100.00;96829.25;5027803;28;20052;-78
2022/08/15 03:18:14;;;;;;;39.08;17.17;;;;;;;17.32;100.00;96814.28;5041179;28;20029;-78
2022/08/15 03:20:41;;;;;;;45.38;19.63;;;;;;;17.33;100.00;96807.00;5049132;28;20025;-77
2022/08/15 03:23:07;;;;;;;28.17;19.17;;;;;;;17.32;100.00;96821.53;5021441;28;20029;-77
2022/08/15 03:25:39;;;;;;;41.00;19.02;;;;;;;17.33;100.00;96839.47;5036372;28;20085;-77
2022/08/15 03:28:05;;;;;;;35.50;19.75;;;;;;;17.37;100.00;96845.41;5020741;28;20495;-78
2022/08/15 03:30:30;;;;;;;28.67;18.20;;;;;;;17.33;100.00;96844.88;5028986;28;20021;-78
2022/08/15 03:32:58;;;;;;;30.67;18.52;;;;;;;17.33;100.00;96845.72;5019066;28;20032;-78
2022/08/15 03:35:26;;;;;;;29.75;19.55;;;;;;;17.32;100.00;96833.19;5009132;28;20052;-78
2022/08/15 03:37:52;;;;;;;31.80;19.88;;;;;;;17.37;100.00;96843.56;5026734;28;20454;-78
2022/08/15 03:40:17;;;;;;;58.58;21.08;;;;;;;17.46;100.00;96839.94;5020598;28;20044;-77
2022/08/15 03:43:07;;;;;;;40.05;21.42;;;;;;;17.54;100.00;96853.50;5028859;28;20025;-77
2022/08/15 03:45:33;;;;;;;34.95;18.23;;;;;;;17.51;100.00;96848.41;5034787;28;20048;-77
2022/08/15 03:48:01;;;;;;;33.42;19.95;;;;;;;17.52;100.00;96860.94;5040904;28;20032;-78
2022/08/15 03:50:28;;;;;;;43.95;19.75;;;;;;;17.55;100.00;96854.41;5035509;28;20036;-78
2022/08/15 03:52:59;;;;;;;44.47;22.17;;;;;;;17.55;100.00;96844.44;5029794;28;20055;-77
2022/08/15 03:55:26;;;;;;;41.03;20.30;;;;;;;17.47;100.00;96863.28;5020958;28;20117;-77
2022/08/15 03:57:52;;;;;;;60.45;22.88;;;;;;;17.34;100.00;96854.69;5011877;28;20029;-77
2022/08/15 04:00:21;;;;;;;36.65;18.67;;;;;;;17.30;100.00;96861.38;5039580;28;20021;-77
2022/08/15 04:02:47;;;;;;;37.67;20.20;;;;;;;17.44;100.00;96863.59;5048244;28;20032;-77
2022/08/15 04:05:13;;;;;;;34.65;21.00;;;;;;;17.44;100.00;96854.63;5030090;28;20132;-78
2022/08/15 04:07:39;;;;;;;46.58;21.88;;;;;;;17.48;100.00;96864.94;5026067;28;20052;-78
2022/08/15 04:10:17;;;;;;;38.05;21.38;;;;;;;17.57;100.00;96857.78;5039243;28;20472;-77
2022/08/15 04:12:43;;;;;;;37.60;20.65;;;;;;;17.64;100.00;96865.16;5011858;28;20079;-76
2022/08/15 04:15:14;;;;;;;37.78;21.10;;;;;;;17.62;100.00;96863.59;5030735;28;20040;-76
2022/08/15 04:17:40;;;;;;;37.95;18.67;;;;;;;17.59;100.00;96861.22;5034388;28;20116;-78
2022/08/15 04:20:08;;;;;;;29.73;19.40;;;;;;;17.62;100.00;96859.06;5036864;28;20112;-78
2022/08/15 04:22:43;;;;;;;33.15;19.70;;;;;;;17.70;100.00;96858.25;5033985;28;20033;-78
2022/08/15 04:25:27;;;;;;;30.63;18.85;;;;;;;17.55;100.00;96859.81;5035740;28;20069;-78
2022/08/15 04:27:57;;;;;;;37.80;19.35;;;;;;;17.52;100.00;96860.09;5047864;28;20025;-78
2022/08/15 04:30:25;;;;;;;35.47;19.67;;;;;;;17.56;100.00;96856.97;5030467;28;20029;-77
2022/08/15 04:32:53;;;;;;;31.27;20.60;;;;;;;17.59;100.00;96853.94;5031316;28;20507;-77
2022/08/15 04:35:19;;;;;;;30.58;20.15;;;;;;;17.59;100.00;96856.66;5019397;28;20041;-76
2022/08/15 04:37:44;;;;;;;31.58;18.95;;;;;;;17.66;100.00;96857.72;5011413;28;20033;-77
2022/08/15 04:40:14;;;;;;;29.52;18.80;;;;;;;17.66;100.00;96852.31;5036525;28;20518;-78
2022/08/15 04:42:53;;;;;;;29.23;18.63;;;;;;;17.49;100.00;96853.13;5035038;28;20029;-77
2022/08/15 04:45:20;;;;;;;37.33;17.92;;;;;;;17.47;100.00;96847.06;5031149;28;20033;-83
2022/08/15 04:47:46;;;;;;;29.67;19.60;;;;;;;17.46;100.00;96849.88;5047706;28;20040;-78
2022/08/15 04:50:12;;;;;;;31.88;19.10;;;;;;;17.45;100.00;96845.47;5030332;28;20034;-78
2022/08/15 04:52:49;;;;;;;34.25;17.65;;;;;;;17.53;100.00;96857.25;5027783;28;20036;-77
2022/08/15 04:55:15;;;;;;;30.40;17.40;;;;;;;17.54;100.00;96864.34;5020571;28;20428;-79
2022/08/15 04:57:41;;;;;;;35.67;20.65;;;;;;;17.41;100.00;96866.56;5022278;28;20029;-77
2022/08/15 05:00:10;;;;;;;27.75;16.75;;;;;;;17.50;100.00;96876.47;5047196;28;20088;-77
2022/08/15 05:02:37;;;;;;;29.92;18.70;;;;;;;17.57;100.00;96872.16;5034094;28;20061;-79
2022/08/15 05:05:04;;;;;;;37.38;19.60;;;;;;;17.68;100.00;96877.38;5030520;28;20722;-78
2022/08/15 05:07:30;;;;;;;27.77;18.00;;;;;;;17.56;100.00;96862.38;5045527;28;20416;-77
2022/08/15 05:09:57;;;;;;;43.13;21.02;;;;;;;17.75;100.00;96864.91;5023227;28;20025;-77
2022/08/15 05:12:23;;;;;;;36.70;17.58;;;;;;;17.81;100.00;96868.84;5030034;28;20073;-78
2022/08/15 05:14:49;;;;;;;30.70;18.48;;;;;;;17.99;100.00;96875.09;5047359;28;20040;-77
2022/08/15 05:17:15;;;;;;;33.75;18.40;;;;;;;18.09;100.00;96880.41;5029178;28;20033;-77
2022/08/15 05:19:40;;;;;;;30.92;18.35;;;;;;;18.22;100.00;96872.69;5010501;28;20017;-77
2022/08/15 05:22:06;;;;;;;32.67;15.80;;;;;;;18.38;100.00;96881.78;5007542;28;20025;-76
2022/08/15 05:24:32;;;;;;;31.67;18.33;;;;;;;18.45;100.00;96883.88;5040715;28;20018;-77
2022/08/15 05:26:58;;;;;;;39.38;19.48;;;;;;;18.50;100.00;96878.84;5027247;28;20029;-77
2022/08/15 05:29:25;;;;;;;41.17;19.67;;;;;;;18.62;100.00;96927.16;5010695;28;20029;-77
2022/08/15 05:31:51;;;;;;;37.42;19.38;;;;;;;18.87;100.00;96866.69;5027468;28;20034;-77
2022/08/15 05:34:17;;;;;;;27.60;19.35;;;;;;;19.04;100.00;96872.19;5027045;28;20381;-77
2022/08/15 05:36:44;;;;;;;41.42;22.00;;;;;;;19.20;100.00;96856.78;5027870;28;20561;-77
2022/08/15 05:39:25;;;;;;;29.58;17.67;;;;;;;19.33;100.00;96864.44;5010362;28;20029;-76
2022/08/15 05:42:05;;;;;;;32.00;20.48;;;;;;;19.34;100.00;96868.88;5026820;28;20112;-77
2022/08/15 05:44:46;;;;;;;37.92;19.85;;;;;;;19.37;100.00;96838.72;5047458;28;20482;-76
2022/08/15 05:47:31;;;;;;;34.40;18.85;;;;;;;19.59;100.00;96862.53;5035091;28;20112;-76
2022/08/15 05:50:12;;;;;;;28.90;21.40;;;;;;;19.84;100.00;96852.53;5021173;28;20021;-76
2022/08/15 05:53:03;;;;;;;41.95;24.38;;;;;;;19.92;100.00;96874.25;5030419;28;20488;-78
2022/08/15 05:55:40;;;;;;;34.42;23.05;;;;;;;20.07;100.00;96899.69;5013674;28;20021;-76
2022/08/15 05:58:59;;;;;;;40.30;28.23;;;;;;;20.38;100.00;96848.25;5035585;28;20498;-76
2022/08/15 06:01:36;;;;;;;32.42;25.38;;;;;;;20.23;100.00;96904.28;4970573;28;20039;-77
2022/08/15 06:04:08;;;;;;;28.20;19.33;;;;;;;20.20;100.00;96842.16;5041609;28;20044;-77
2022/08/15 06:06:35;;;;;;;30.13;20.27;;;;;;;20.14;100.00;96862.69;5046225;28;20052;-80
2022/08/15 06:09:16;;;;;;;33.78;24.27;;;;;;;20.01;100.00;96863.22;5032508;28;20025;-77
2022/08/15 06:11:44;;;;;;;27.77;12.93;;;;;;;19.70;100.00;96853.19;5026955;28;20025;-77
2022/08/15 06:14:20;;;;;;;31.90;17.70;;;;;;;19.76;100.00;96891.38;5035336;28;20476;-77
2022/08/15 06:16:51;;;;;;;27.55;18.73;;;;;;;19.67;100.00;96851.66;5024542;28;20036;-77
2022/08/15 06:19:31;;;;;;;24.33;16.55;;;;;;;19.67;100.00;96924.09;5026454;28;20580;-78
2022/08/15 06:22:35;;;;;;;33.47;18.67;;;;;;;19.52;100.00;96839.78;5028843;28;20120;-78
2022/08/15 06:25:26;;;;;;;25.40;18.13;;;;;;;19.70;100.00;96831.47;5041419;28;20026;-78
2022/08/15 06:28:15;;;;;;;40.90;17.80;;;;;;;19.81;100.00;96848.25;5023393;28;20496;-78
2022/08/15 06:30:50;;;;;;;56.70;18.08;;;;;;;19.77;100.00;96901.22;5024185;28;20049;-78
2022/08/15 06:33:49;;;;;;;75.93;17.58;;;;;;;19.88;100.00;96837.59;5034165;28;20040;-77
2022/08/15 06:36:35;;;;;;;23.85;16.98;;;;;;;20.00;100.00;96899.53;5045965;28;20056;-78
2022/08/15 06:39:10;;;;;;;40.50;21.92;;;;;;;20.23;100.00;96855.38;5010469;28;20042;-77
2022/08/15 06:42:13;;;;;;;35.60;20.25;;;;;;;20.15;100.00;96839.13;5044563;28;20064;-78
2022/08/15 06:44:40;;;;;;;37.83;22.48;;;;;;;20.45;100.00;96838.41;5010679;28;20025;-78
2022/08/15 06:47:07;;;;;;;38.42;18.85;;;;;;;21.32;100.00;96837.41;5020998;28;20032;-78
2022/08/15 06:49:36;;;;;;;31.35;18.80;;;;;;;23.11;100.00;96914.72;5028078;28;20464;-78
2022/08/15 06:52:03;;;;;;;34.92;19.90;;;;;;;25.19;89.12;96941.81;5036554;28;20033;-78
2022/08/15 06:54:29;;;;;;;37.67;33.80;;;;;;;26.44;78.54;96859.19;5039724;28;20025;-79
2022/08/15 06:57:08;;;;;;;38.97;27.50;;;;;;;28.25;69.69;96866.25;5019017;28;20028;-79
2022/08/15 06:59:55;;;;;;;41.70;28.70;;;;;;;28.86;63.24;96917.88;5028025;28;20471;-79
2022/08/15 07:02:50;;;;;;;47.55;31.92;;;;;;;29.50;59.11;96846.66;5042923;28;20044;-79
2022/08/15 07:05:26;;;;;;;47.63;29.13;;;;;;;30.72;54.78;96853.63;5029216;28;20070;-79
2022/08/15 07:07:51;;;;;;;49.72;25.00;;;;;;;31.19;53.33;96820.50;5029112;28;20021;-78
2022/08/15 07:10:49;;;;;;;50.83;28.50;;;;;;;31.11;52.87;96813.41;5036018;28;20082;-78
2022/08/15 07:13:24;;;;;;;50.33;25.55;;;;;;;31.41;51.83;96803.00;5024989;28;20124;-78
2022/08/15 07:15:56;;;;;;;56.65;28.08;;;;;;;32.10;49.97;96795.59;5008991;28;20022;-78
2022/08/15 07:18:22;;;;;;;;;;;;;;;31.12;50.38;96798.50;5036200;28;20025;-78
2022/08/15 07:20:47;;;;;;;51.08;24.33;;;;;;;30.99;51.26;96824.47;5033051;28;20375;-78
2022/08/15 07:23:23;;;;;;;66.20;25.55;;;;;;;31.55;50.26;96804.47;5034402;28;20544;-79
2022/08/15 07:25:50;;;;;;;70.53;27.27;;;;;;;30.98;51.74;96814.50;5028739;28;20029;-79
2022/08/15 07:28:19;;;;;;;48.55;23.17;;;;;;;31.56;51.59;96844.84;5028748;28;20087;-79
2022/08/15 07:30:51;;;;;;;55.30;33.90;;;;;;;32.52;48.32;96805.19;5038980;28;20109;-78
2022/08/15 07:33:34;;;;;;;51.65;23.48;;;;;;;31.68;50.49;96815.25;5017665;28;20189;-79
2022/08/15 07:36:24;;;;;;;48.38;24.90;;;;;;;31.90;50.17;96840.28;5028904;28;20479;-78
2022/08/15 07:38:51;;;;;;;52.65;25.10;;;;;;;33.35;47.12;96798.75;5017816;28;20052;-79
2022/08/15 07:41:32;;;;;;;59.35;25.60;;;;;;;32.78;47.41;96797.31;5012154;28;20116;-79
2022/08/15 07:44:16;;;;;;;48.40;26.60;;;;;;;32.91;46.49;96802.53;5031693;28;20511;-78
2022/08/15 07:46:49;;;;;;;53.30;25.38;;;;;;;31.94;48.35;96797.19;5049735;28;20108;-78
2022/08/15 07:49:20;;;;;;;56.95;25.90;;;;;;;31.31;49.94;96791.75;5012693;28;20025;-78
2022/08/15 07:52:16;;;;;;;53.15;28.73;;;;;;;32.72;47.22;96794.47;5043762;28;20481;-79
2022/08/15 07:54:41;;;;;;;68.25;31.27;;;;;;;33.85;44.13;96787.47;5042215;28;20041;-79
2022/08/15 07:57:47;;;;;;;57.60;27.73;;;;;;;34.56;42.93;96785.41;5037873;28;20041;-79
2022/08/15 08:00:15;;;;;;;67.03;32.45;;;;;;;33.86;44.46;96785.53;5033793;28;20049;-77
2022/08/15 08:02:50;;;;;;;72.15;43.28;;;;;;;34.20;42.56;96779.56;5047780;28;20112;-80
2022/08/15 08:05:16;;;;;;;72.55;34.55;;;;;;;34.70;42.74;96828.38;5031774;28;20056;-80
2022/08/15 08:07:48;;;;;;;78.00;33.97;;;;;;;35.17;41.85;96784.78;5031031;28;20032;-79
2022/08/15 08:10:32;;;;;;;74.18;38.70;;;;;;;35.41;41.96;96779.63;5029406;28;20048;-80
2022/08/15 08:13:19;;;;;;;76.20;40.75;;;;;;;36.22;40.59;96774.38;5041316;28;20107;-80
2022/08/15 08:16:03;;;;;;;60.00;33.22;;;;;;;36.59;39.89;96779.72;5043581;28;20495;-80
2022/08/15 08:18:50;;;;;;;72.65;38.80;;;;;;;37.12;39.15;96834.97;5047694;28;20132;-79
2022/08/15 08:21:26;;;;;;;70.70;36.83;;;;;;;36.60;36.89;96748.81;5047765;28;20088;-79
2022/08/15 08:23:54;;;;;;;73.97;43.75;;;;;;;37.33;37.27;96752.88;5010933;28;20032;-80
2022/08/15 08:26:26;;;;;;;74.03;40.63;;;;;;;37.82;34.13;96739.00;5048051;28;20024;-80
2022/08/15 08:29:14;;;;;;;63.03;37.97;;;;;;;36.89;36.00;96752.66;5020214;28;20084;-80
2022/08/15 08:31:58;;;;;;;118.93;48.33;;;;;;;37.96;33.89;96737.25;5045989;28;20033;-80
2022/08/15 08:34:28;;;;;;;84.47;50.17;;;;;;;37.98;33.88;96732.22;5047824;28;20552;-80
2022/08/15 08:37:19;;;;;;;77.43;48.85;;;;;;;39.15;33.04;96728.47;5035653;28;20116;-80
2022/08/15 08:39:55;;;;;;;95.03;52.55;;;;;;;40.16;32.07;96736.44;5030120;28;20044;-81
2022/08/15 08:42:40;;;;;;;78.45;44.60;;;;;;;39.34;31.77;96726.59;5015485;28;20041;-80
2022/08/15 08:45:11;;;;;;;109.43;51.10;;;;;;;39.63;31.57;96716.13;5011521;28;20557;-81
2022/08/15 08:47:49;;;;;;;85.65;44.78;;;;;;;40.49;30.18;96723.28;5027517;28;20028;-80
2022/08/15 08:50:33;;;;;;;71.82;42.65;;;;;;;38.86;31.43;96706.94;5027930;28;20028;-80
2022/08/15 08:53:17;;;;;;;83.43;48.72;;;;;;;38.84;32.08;96716.75;5033936;28;20025;-79
2022/08/15 08:55:47;;;;;;;75.32;38.42;;;;;;;38.99;31.23;96708.19;5029157;28;20388;-79
2022/08/15 08:58:20;;;;;;;85.50;50.97;;;;;;;40.20;29.96;96729.09;5019578;28;20025;-79
2022/08/15 09:00:50;;;;;;;82.63;52.13;;;;;;;40.97;29.54;96702.31;5021136;28;20035;-79
2022/08/15 09:03:27;;;;;;;90.55;55.90;;;;;;;41.51;28.68;96695.06;5030887;28;20104;-79
2022/08/15 09:05:58;;;;;;;89.47;55.90;;;;;;;40.83;29.09;96712.63;5027812;28;20521;-78
2022/08/15 09:08:42;;;;;;;88.07;59.35;;;;;;;41.56;28.49;96709.81;5036229;28;20046;-78
2022/08/15 09:11:23;;;;;;;86.25;51.42;;;;;;;41.88;28.92;96697.63;5036386;28;20395;-79
2022/08/15 09:13:49;;;;;;;103.38;64.88;;;;;;;41.46;29.08;96703.59;5011163;28;20416;-79
2022/08/15 09:16:21;;;;;;;72.47;43.92;;;;;;;40.13;29.61;96699.78;5033512;28;20033;-78
2022/08/15 09:19:07;;;;;;;85.95;51.40;;;;;;;40.10;30.17;96714.41;5037454;28;20033;-79
2022/08/15 09:21:33;;;;;;;80.20;42.75;;;;;;;40.01;30.19;96725.44;5026835;28;20037;-79
2022/08/15 09:23:59;;;;;;;81.45;49.67;;;;;;;40.29;29.69;96676.81;5038771;28;20028;-79
2022/08/15 09:26:34;;;;;;;69.25;45.17;;;;;;;41.11;28.77;96666.66;5032632;28;20032;-79
2022/08/15 09:29:12;;;;;;;83.70;48.90;;;;;;;40.42;29.56;96675.19;5028744;28;20161;-78
2022/08/15 09:31:39;;;;;;;76.97;47.65;;;;;;;40.72;29.35;96683.09;5011160;28;20105;-80
2022/08/15 09:34:17;;;;;;;83.38;49.08;;;;;;;41.04;29.37;96677.44;5019214;28;20105;-78
2022/08/15 09:36:52;;;;;;;56.92;36.78;;;;;;;40.32;29.24;96680.97;5035680;28;20064;-78
2022/08/15 09:39:23;;;;;;;71.50;44.10;;;;;;;40.95;28.86;96672.84;5034233;28;20009;-80
2022/08/15 09:42:18;;;;;;;78.70;55.55;;;;;;;42.41;26.98;96671.66;5046518;28;20051;-78
2022/08/15 09:44:50;;;;;;;92.18;59.30;;;;;;;42.27;27.14;96668.09;5037526;28;20025;-79
2022/08/15 09:47:24;;;;;;;88.70;54.25;;;;;;;42.53;26.81;96669.06;5039928;28;20032;-80
2022/08/15 09:49:56;;;;;;;75.82;47.97;;;;;;;41.85;27.99;96674.94;5047726;28;20062;-79
2022/08/15 09:52:39;;;;;;;60.95;41.13;;;;;;;41.16;29.68;96674.16;5046768;28;20033;-79
2022/08/15 09:55:07;;;;;;;71.18;42.17;;;;;;;38.56;30.94;96662.47;5021789;28;20360;-78
2022/08/15 09:57:39;;;;;;;65.20;37.92;;;;;;;39.20;31.25;96658.41;5038365;28;20089;-78
2022/08/15 10:00:17;;;;;;;77.20;44.08;;;;;;;41.09;29.58;96674.56;5021746;28;20048;-79
2022/08/15 10:02:45;;;;;;;92.45;55.45;;;;;;;41.40;28.66;96637.44;5038578;28;20415;-79
2022/08/15 10:05:41;;;;;;;77.57;50.20;;;;;;;42.25;27.38;96678.78;5030131;28;20483;-79
2022/08/15 10:08:08;;;;;;;83.55;52.13;;;;;;;43.27;26.41;96672.19;5043563;28;20086;-79
2022/08/15 10:10:36;;;;;;;72.38;49.67;;;;;;;43.28;26.35;96651.31;5024891;28;20123;-79
2022/08/15 10:13:08;;;;;;;89.72;54.38;;;;;;;41.72;27.77;96647.69;5037843;28;20385;-79
2022/08/15 10:15:41;;;;;;;68.70;44.25;;;;;;;41.06;29.14;96633.06;5038295;28;20037;-79
2022/08/15 10:18:08;;;;;;;73.32;39.50;;;;;;;40.81;28.95;96644.75;5038146;28;20409;-77
2022/08/15 10:20:33;;;;;;;67.72;37.08;;;;;;;41.62;28.56;96649.56;5040317;28;20028;-78
2022/08/15 10:23:04;;;;;;;68.10;39.80;;;;;;;40.67;29.18;96649.50;5042865;28;20033;-78
2022/08/15 10:25:36;;;;;;;75.43;46.72;;;;;;;41.17;27.94;96638.44;5027990;28;20082;-78
2022/08/15 10:28:06;;;;;;;75.47;44.28;;;;;;;42.41;26.95;96633.09;5034889;28;20458;-78
2022/08/15 10:30:36;;;;;;;82.35;48.17;;;;;;;41.17;27.27;96635.63;5038383;28;20033;-78
2022/08/15 10:33:34;;;;;;;72.80;42.25;;;;;;;41.06;27.76;96630.25;5031024;28;20038;-78
2022/08/15 10:36:14;;;;;;;97.65;61.90;;;;;;;42.73;26.21;96633.97;5021411;28;20044;-78
2022/08/15 10:38:52;;;;;;;83.60;51.35;;;;;;;41.89;26.28;96614.97;5024267;28;20432;-79
2022/08/15 10:41:37;;;;;;;72.45;49.97;;;;;;;41.06;27.69;96613.41;5010633;28;20424;-79
2022/08/15 10:44:03;;;;;;;90.70;46.15;;;;;;;40.97;27.14;96615.28;5031123;28;20038;-76
2022/08/15 10:46:43;;;;;;;81.15;52.85;;;;;;;41.20;27.48;96619.00;5036360;28;20033;-79
2022/08/15 10:49:46;;;;;;;86.03;52.37;;;;;;;42.40;26.29;96614.53;5043320;28;20033;-76
2022/08/15 10:52:33;;;;;;;93.85;57.33;;;;;;;41.97;27.10;96611.38;5030174;28;20183;-77
2022/08/15 10:55:14;;;;;;;65.13;41.80;;;;;;;41.15;28.41;96613.50;5017862;28;20082;-78
2022/08/15 10:57:47;;;;;;;86.80;54.28;;;;;;;42.42;26.88;96612.25;5039070;28;20025;-78
2022/08/15 11:00:17;;;;;;;76.00;42.35;;;;;;;41.22;28.04;96615.91;5017371;28;20496;-77
2022/08/15 11:02:47;;;;;;;68.83;35.73;;;;;;;39.60;29.33;96615.88;5024885;28;20033;-77
2022/08/15 11:05:17;;;;;;;61.40;33.58;;;;;;;37.90;30.65;96635.03;5028688;28;20402;-78
2022/08/15 11:07:55;;;;;;;74.30;30.15;;;;;;;36.38;32.88;96590.19;5041991;28;20029;-77
2022/08/15 11:10:25;;;;;;;61.20;30.13;;;;;;;34.93;35.50;96618.63;5055461;28;20044;-77
2022/08/15 11:12:59;;;;;;;65.07;38.17;;;;;;;34.52;36.88;96614.75;5032506;28;20054;-77
2022/08/15 11:15:28;;;;;;;58.08;25.13;;;;;;;34.06;38.86;96625.53;5026046;28;20514;-79
2022/08/15 11:18:03;;;;;;;60.90;32.13;;;;;;;33.70;38.29;96629.97;5045068;28;20031;-78
2022/08/15 11:20:40;;;;;;;52.70;27.17;;;;;;;33.07;39.49;96629.78;5023924;28;20029;-78
2022/08/15 11:23:07;;;;;;;51.22;26.52;;;;;;;32.63;40.01;96646.41;5035494;28;20473;-77
2022/08/15 11:25:35;;;;;;;52.55;25.27;;;;;;;32.27;41.02;96666.31;5028646;28;20057;-77
2022/08/15 11:28:21;;;;;;;58.13;25.45;;;;;;;31.85;41.44;96642.88;5032738;28;20068;-77
2022/08/15 11:30:47;;;;;;;46.15;25.02;;;;;;;31.40;42.51;96651.19;5024410;28;20465;-77
2022/08/15 11:33:23;;;;;;;54.47;20.30;;;;;;;31.54;44.24;96658.97;5029808;28;20066;-77
2022/08/15 11:36:03;;;;;;;46.97;18.15;;;;;;;31.20;46.37;96659.06;5036805;28;20029;-77
2022/08/15 11:38:31;;;;;;;45.20;18.63;;;;;;;31.90;46.00;96667.91;5040911;28;20064;-78
2022/08/15 11:40:59;;;;;;;61.08;27.50;;;;;;;32.80;44.13;96656.56;5023895;28;20056;-78